Time,TemperatureF,DewpointF,PressureIn,WindDirection,WindDirectionDegrees,WindSpeedMPH,WindSpeedGustMPH,Humidity,HourlyPrecipIn,Conditions,Clouds,dailyrainin,SoftwareType,DateUTC
2013-06-01 00:01:00,62.0,17.0,30.22,North,355,6.0,17.0,17,0.00,,,0.00,,2013-06-01 00:01:00,
2013-06-01 00:11:00,62.0,17.0,30.22,North,355,6.0,17.0,17,0.00,,,0.00,,2013-06-01 00:11:00,
2013-06-01 00:22:00,62.0,17.0,30.22,NNE,18,6.0,12.0,17,0.00,,,0.00,,2013-06-01 00:22:00,
2013-06-01 00:31:00,61.0,16.0,30.22,NNW,343,6.0,13.0,17,0.00,,,0.00,,2013-06-01 00:31:00,
2013-06-01 00:42:00,61.0,16.0,30.22,NNW,343,6.0,13.0,17,0.00,,,0.00,,2013-06-01 00:42:00,
2013-06-01 00:52:00,61.0,17.0,30.23,NW,315,6.0,16.0,18,0.00,,,0.00,,2013-06-01 00:52:00,
2013-06-01 01:01:00,61.0,16.0,30.22,NE,34,3.0,9.0,17,0.00,,,0.00,,2013-06-01 01:01:00,
2013-06-01 01:11:00,61.0,16.0,30.22,NE,34,3.0,9.0,17,0.00,,,0.00,,2013-06-01 01:11:00,
2013-06-01 01:21:00,60.0,15.0,30.23,NW,317,6.0,10.0,17,0.00,,,0.00,,2013-06-01 01:21:00,
2013-06-01 01:31:00,60.0,15.0,30.23,NNW,336,2.0,10.0,17,0.00,,,0.00,,2013-06-01 01:31:00,
2013-06-01 01:42:00,59.0,14.0,30.23,NW,317,2.0,11.0,17,0.00,,,0.00,,2013-06-01 01:42:00,
2013-06-01 01:52:00,59.0,14.0,30.23,NW,317,2.0,11.0,17,0.00,,,0.00,,2013-06-01 01:52:00,
2013-06-01 02:01:00,58.0,16.0,30.23,NNW,333,2.0,8.0,19,0.00,,,0.00,,2013-06-01 02:01:00,
2013-06-01 02:11:00,58.0,16.0,30.23,NNW,333,2.0,8.0,19,0.00,,,0.00,,2013-06-01 02:11:00,
2013-06-01 02:21:00,57.0,17.0,30.23,NNW,333,0.0,3.0,21,0.00,,,0.00,,2013-06-01 02:21:00,
2013-06-01 02:31:00,56.0,20.0,30.24,NNW,333,1.0,3.0,24,0.00,,,0.00,,2013-06-01 02:31:00,
2013-06-01 02:42:00,54.0,19.0,30.24,NNW,333,2.0,4.0,25,0.00,,,0.00,,2013-06-01 02:42:00,
2013-06-01 02:52:00,54.0,19.0,30.24,NNW,333,2.0,4.0,25,0.00,,,0.00,,2013-06-01 02:52:00,
2013-06-01 03:01:00,51.0,18.0,30.25,NNW,331,3.0,5.0,27,0.00,,,0.00,,2013-06-01 03:01:00,
2013-06-01 03:11:00,51.0,18.0,30.25,NNW,331,3.0,5.0,27,0.00,,,0.00,,2013-06-01 03:11:00,
2013-06-01 03:21:00,49.0,16.0,30.25,West,266,4.0,5.0,27,0.00,,,0.00,,2013-06-01 03:21:00,
2013-06-01 03:33:00,48.0,15.0,30.27,WNW,284,4.0,12.0,26,0.00,,,0.00,,2013-06-01 03:33:00,
2013-06-01 03:43:00,48.0,12.0,30.27,WNW,285,5.0,9.0,23,0.00,,,0.00,,2013-06-01 03:43:00,
2013-06-01 03:53:00,48.0,12.0,30.27,WNW,285,5.0,9.0,23,0.00,,,0.00,,2013-06-01 03:53:00,
2013-06-01 04:02:00,49.0,9.0,30.27,WNW,287,6.0,12.0,19,0.00,,,0.00,,2013-06-01 04:02:00,
2013-06-01 04:12:00,49.0,9.0,30.27,WNW,287,6.0,12.0,19,0.00,,,0.00,,2013-06-01 04:12:00,
2013-06-01 04:23:00,49.0,7.0,30.28,WNW,286,5.0,11.0,18,0.00,,,0.00,,2013-06-01 04:23:00,
2013-06-01 04:33:00,49.0,6.0,30.28,WNW,294,5.0,9.0,17,0.00,,,0.00,,2013-06-01 04:33:00,
2013-06-01 04:42:00,49.0,5.0,30.28,West,277,6.0,10.0,16,0.00,,,0.00,,2013-06-01 04:42:00,
2013-06-01 04:53:00,49.0,5.0,30.28,West,277,6.0,10.0,16,0.00,,,0.00,,2013-06-01 04:53:00,
2013-06-01 05:02:00,49.0,5.0,30.28,WNW,288,7.0,12.0,16,0.00,,,0.00,,2013-06-01 05:02:00,
2013-06-01 05:12:00,49.0,5.0,30.28,WNW,288,7.0,12.0,16,0.00,,,0.00,,2013-06-01 05:12:00,
2013-06-01 05:22:00,49.0,5.0,30.28,WSW,255,6.0,10.0,16,0.00,,,0.00,,2013-06-01 05:22:00,
2013-06-01 05:32:00,49.0,5.0,30.29,NW,321,1.0,10.0,16,0.00,,,0.00,,2013-06-01 05:32:00,
2013-06-01 05:42:00,48.0,7.0,30.29,East,90,1.0,5.0,18,0.00,,,0.00,,2013-06-01 05:42:00,
2013-06-01 05:52:00,48.0,7.0,30.29,East,90,1.0,5.0,18,0.00,,,0.00,,2013-06-01 05:52:00,
2013-06-01 06:01:00,46.0,5.0,30.29,WSW,250,2.0,5.0,18,0.00,,,0.00,,2013-06-01 06:01:00,
2013-06-01 06:12:00,46.0,5.0,30.29,WSW,250,2.0,5.0,18,0.00,,,0.00,,2013-06-01 06:12:00,
2013-06-01 06:22:00,44.0,6.0,30.29,WNW,300,1.0,4.0,20,0.00,,,0.00,,2013-06-01 06:22:00,
2013-06-01 06:32:00,43.0,9.0,30.29,SW,220,5.0,9.0,24,0.00,,,0.00,,2013-06-01 06:32:00,
2013-06-01 06:41:00,43.0,8.0,30.29,NW,320,0.0,4.0,23,0.00,,,0.00,,2013-06-01 06:41:00,
2013-06-01 06:52:00,43.0,8.0,30.29,NW,320,0.0,4.0,23,0.00,,,0.00,,2013-06-01 06:52:00,
2013-06-01 07:01:00,43.0,8.0,30.30,NNW,338,0.0,1.0,23,0.00,,,0.00,,2013-06-01 07:01:00,
2013-06-01 07:11:00,43.0,8.0,30.30,NNW,338,0.0,1.0,23,0.00,,,0.00,,2013-06-01 07:11:00,
2013-06-01 07:21:00,41.0,8.0,30.30,SSE,157,1.0,4.0,25,0.00,,,0.00,,2013-06-01 07:21:00,
2013-06-01 07:31:00,40.0,8.0,30.30,SSW,194,3.0,4.0,26,0.00,,,0.00,,2013-06-01 07:31:00,
2013-06-01 07:42:00,39.0,9.0,30.30,SSW,196,0.0,4.0,28,0.00,,,0.00,,2013-06-01 07:42:00,
2013-06-01 07:52:00,39.0,9.0,30.30,SSW,196,0.0,4.0,28,0.00,,,0.00,,2013-06-01 07:52:00,
2013-06-01 08:02:00,38.0,9.0,30.31,SSW,196,2.0,4.0,29,0.00,,,0.00,,2013-06-01 08:02:00,
2013-06-01 08:11:00,38.0,9.0,30.31,SSW,196,2.0,4.0,29,0.00,,,0.00,,2013-06-01 08:11:00,
2013-06-01 08:21:00,36.0,8.0,30.31,SSW,193,2.0,5.0,30,0.00,,,0.00,,2013-06-01 08:21:00,
2013-06-01 08:32:00,35.0,8.0,30.31,SW,221,4.0,5.0,32,0.00,,,0.00,,2013-06-01 08:32:00,
2013-06-01 08:42:00,35.0,9.0,30.31,WSW,257,3.0,5.0,33,0.00,,,0.00,,2013-06-01 08:42:00,
2013-06-01 08:52:00,35.0,9.0,30.31,WSW,257,3.0,5.0,33,0.00,,,0.00,,2013-06-01 08:52:00,
2013-06-01 09:01:00,35.0,9.0,30.32,West,265,4.0,6.0,34,0.00,,,0.00,,2013-06-01 09:01:00,
2013-06-01 09:12:00,35.0,9.0,30.32,West,265,4.0,6.0,34,0.00,,,0.00,,2013-06-01 09:12:00,
2013-06-01 09:21:00,36.0,10.0,30.32,West,271,2.0,6.0,34,0.00,,,0.00,,2013-06-01 09:21:00,
2013-06-01 09:32:00,36.0,10.0,30.32,WNW,287,2.0,4.0,34,0.00,,,0.00,,2013-06-01 09:32:00,
2013-06-01 09:42:00,36.0,10.0,30.32,WNW,287,2.0,4.0,34,0.00,,,0.00,,2013-06-01 09:42:00,
2013-06-01 09:53:00,36.0,10.0,30.32,SSW,200,5.0,7.0,34,0.00,,,0.00,,2013-06-01 09:53:00,
2013-06-01 10:02:00,36.0,12.0,30.32,SW,214,2.0,6.0,36,0.00,,,0.00,,2013-06-01 10:02:00,
2013-06-01 10:12:00,36.0,12.0,30.32,SW,214,2.0,6.0,36,0.00,,,0.00,,2013-06-01 10:12:00,
2013-06-01 10:22:00,35.0,11.0,30.32,SW,214,3.0,4.0,36,0.00,,,0.00,,2013-06-01 10:22:00,
2013-06-01 10:32:00,34.0,11.0,30.33,SW,216,1.0,5.0,38,0.00,,,0.00,,2013-06-01 10:32:00,
2013-06-01 10:42:00,34.0,11.0,30.33,SW,216,1.0,5.0,38,0.00,,,0.00,,2013-06-01 10:42:00,
2013-06-01 10:52:00,33.0,11.0,30.33,SW,216,2.0,4.0,39,0.00,,,0.00,,2013-06-01 10:52:00,
2013-06-01 11:02:00,32.0,12.0,30.33,SW,216,0.0,4.0,42,0.00,,,0.00,,2013-06-01 11:02:00,
2013-06-01 11:11:00,32.0,12.0,30.33,SW,216,0.0,4.0,42,0.00,,,0.00,,2013-06-01 11:11:00,
2013-06-01 11:21:00,31.0,11.0,30.33,SW,216,3.0,4.0,43,0.00,,,0.00,,2013-06-01 11:21:00,
2013-06-01 11:32:00,31.0,13.0,30.33,SW,221,4.0,6.0,46,0.00,,,0.00,,2013-06-01 11:32:00,
2013-06-01 11:42:00,31.0,13.0,30.33,SW,221,4.0,6.0,46,0.00,,,0.00,,2013-06-01 11:42:00,
2013-06-01 11:52:00,31.0,14.0,30.33,SW,225,4.0,6.0,48,0.00,,,0.00,,2013-06-01 11:52:00,
2013-06-01 12:01:00,32.0,15.0,30.33,SW,226,3.0,5.0,48,0.00,,,0.00,,2013-06-01 12:01:00,
2013-06-01 12:11:00,32.0,15.0,30.33,SW,226,3.0,5.0,48,0.00,,,0.00,,2013-06-01 12:11:00,
2013-06-01 12:21:00,33.0,15.0,30.34,SW,225,2.0,4.0,47,0.00,,,0.00,,2013-06-01 12:21:00,
2013-06-01 12:32:00,33.0,15.0,30.34,SSW,203,2.0,4.0,47,0.00,,,0.00,,2013-06-01 12:32:00,
2013-06-01 12:41:00,33.0,15.0,30.34,SSW,203,2.0,4.0,47,0.00,,,0.00,,2013-06-01 12:41:00,
2013-06-01 12:52:00,34.0,16.0,30.34,South,171,4.0,6.0,47,0.00,,,0.00,,2013-06-01 12:52:00,
2013-06-01 13:01:00,36.0,17.0,30.34,SSE,157,2.0,6.0,45,0.00,,,0.00,,2013-06-01 13:01:00,
2013-06-01 13:11:00,36.0,17.0,30.34,SSE,157,2.0,6.0,45,0.00,,,0.00,,2013-06-01 13:11:00,
2013-06-01 13:22:00,39.0,18.0,30.34,SSE,147,2.0,7.0,42,0.00,,,0.00,,2013-06-01 13:22:00,
2013-06-01 13:32:00,41.0,17.0,30.35,SE,130,3.0,8.0,38,0.00,,,0.00,,2013-06-01 13:32:00,
2013-06-01 13:42:00,41.0,17.0,30.35,SE,130,3.0,8.0,38,0.00,,,0.00,,2013-06-01 13:42:00,
2013-06-01 13:52:00,42.0,17.0,30.35,SE,145,4.0,7.0,36,0.00,,,0.00,,2013-06-01 13:52:00,
2013-06-01 14:01:00,44.0,17.0,30.35,SSE,162,5.0,9.0,34,0.00,,,0.00,,2013-06-01 14:01:00,
2013-06-01 14:11:00,44.0,17.0,30.35,SSE,162,5.0,9.0,34,0.00,,,0.00,,2013-06-01 14:11:00,
2013-06-01 14:21:00,45.0,17.0,30.35,ESE,116,0.0,7.0,32,0.00,,,0.00,,2013-06-01 14:21:00,
2013-06-01 14:32:00,47.0,20.0,30.35,East,90,2.0,6.0,34,0.00,,,0.00,,2013-06-01 14:32:00,
2013-06-01 14:42:00,47.0,20.0,30.35,East,90,2.0,6.0,34,0.00,,,0.00,,2013-06-01 14:42:00,
2013-06-01 14:52:00,50.0,20.0,30.35,East,84,0.0,7.0,30,0.00,,,0.00,,2013-06-01 14:52:00,
2013-06-01 15:01:00,51.0,21.0,30.35,North,9,2.0,8.0,30,0.00,,,0.00,,2013-06-01 15:01:00,
2013-06-01 15:11:00,51.0,21.0,30.35,North,9,2.0,8.0,30,0.00,,,0.00,,2013-06-01 15:11:00,
2013-06-01 15:21:00,51.0,20.0,30.35,NNE,30,6.0,10.0,29,0.00,,,0.00,,2013-06-01 15:21:00,
2013-06-01 15:33:00,52.0,21.0,30.35,NNW,348,3.0,10.0,29,0.00,,,0.00,,2013-06-01 15:33:00,
2013-06-01 15:43:00,52.0,21.0,30.35,NNW,348,3.0,10.0,29,0.00,,,0.00,,2013-06-01 15:43:00,
2013-06-01 15:53:00,54.0,19.0,30.35,NE,56,2.0,13.0,25,0.00,,,0.00,,2013-06-01 15:53:00,
2013-06-01 16:03:00,55.0,20.0,30.35,NE,40,4.0,10.0,25,0.00,,,0.00,,2013-06-01 16:03:00,
2013-06-01 16:12:00,55.0,20.0,30.35,NE,40,4.0,10.0,25,0.00,,,0.00,,2013-06-01 16:12:00,
2013-06-01 16:23:00,55.0,18.0,30.35,North,351,5.0,9.0,23,0.00,,,0.00,,2013-06-01 16:23:00,
2013-06-01 16:33:00,55.0,18.0,30.35,NNE,28,2.0,11.0,23,0.00,,,0.00,,2013-06-01 16:33:00,
2013-06-01 16:42:00,55.0,18.0,30.35,NNE,28,2.0,11.0,23,0.00,,,0.00,,2013-06-01 16:42:00,
2013-06-01 16:52:00,56.0,18.0,30.35,North,10,3.0,10.0,22,0.00,,,0.00,,2013-06-01 16:52:00,
2013-06-01 17:02:00,57.0,16.0,30.35,WNW,300,3.0,14.0,20,0.00,,,0.00,,2013-06-01 17:02:00,
2013-06-01 17:11:00,57.0,16.0,30.35,WNW,300,3.0,14.0,20,0.00,,,0.00,,2013-06-01 17:11:00,
2013-06-01 17:22:00,57.0,16.0,30.35,WNW,292,7.0,16.0,20,0.00,,,0.00,,2013-06-01 17:22:00,
2013-06-01 17:32:00,58.0,15.0,30.34,NNW,347,5.0,12.0,18,0.00,,,0.00,,2013-06-01 17:32:00,
2013-06-01 17:42:00,58.0,15.0,30.34,NNW,347,5.0,12.0,18,0.00,,,0.00,,2013-06-01 17:42:00,
2013-06-01 17:52:00,60.0,16.0,30.35,West,277,4.0,15.0,18,0.00,,,0.00,,2013-06-01 17:52:00,
2013-06-01 18:01:00,58.0,15.0,30.34,NW,315,7.0,14.0,18,0.00,,,0.00,,2013-06-01 18:01:00,
2013-06-01 18:11:00,58.0,15.0,30.34,NW,315,7.0,14.0,18,0.00,,,0.00,,2013-06-01 18:11:00,
2013-06-01 18:21:00,60.0,14.0,30.34,NW,315,2.0,13.0,16,0.00,,,0.00,,2013-06-01 18:21:00,
2013-06-01 18:32:00,60.0,16.0,30.34,North,5,7.0,14.0,18,0.00,,,0.00,,2013-06-01 18:32:00,
2013-06-01 18:41:00,60.0,16.0,30.34,North,5,7.0,14.0,18,0.00,,,0.00,,2013-06-01 18:41:00,
2013-06-01 18:51:00,60.0,15.0,30.34,NE,38,1.0,15.0,17,0.00,,,0.00,,2013-06-01 18:51:00,
2013-06-01 19:01:00,60.0,15.0,30.33,NW,313,7.0,14.0,17,0.00,,,0.00,,2013-06-01 19:01:00,
2013-06-01 19:11:00,60.0,15.0,30.33,NW,313,7.0,14.0,17,0.00,,,0.00,,2013-06-01 19:11:00,
2013-06-01 19:21:00,62.0,17.0,30.33,North,349,9.0,13.0,17,0.00,,,0.00,,2013-06-01 19:21:00,
2013-06-01 19:32:00,62.0,15.0,30.33,NW,306,6.0,13.0,16,0.00,,,0.00,,2013-06-01 19:32:00,
2013-06-01 19:41:00,62.0,15.0,30.33,NW,306,6.0,13.0,16,0.00,,,0.00,,2013-06-01 19:41:00,
2013-06-01 19:52:00,62.0,15.0,30.33,WNW,298,7.0,15.0,16,0.00,,,0.00,,2013-06-01 19:52:00,
2013-06-01 20:01:00,62.0,14.0,30.32,North,355,2.0,12.0,15,0.00,,,0.00,,2013-06-01 20:01:00,
2013-06-01 20:11:00,62.0,14.0,30.32,North,355,2.0,12.0,15,0.00,,,0.00,,2013-06-01 20:11:00,
2013-06-01 20:21:00,63.0,13.0,30.32,NNW,333,7.0,14.0,14,0.00,,,0.00,,2013-06-01 20:21:00,
2013-06-01 20:32:00,63.0,10.0,30.32,NNW,348,6.0,14.0,12,0.00,,,0.00,,2013-06-01 20:32:00,
2013-06-01 20:41:00,63.0,10.0,30.32,NNW,348,6.0,14.0,12,0.00,,,0.00,,2013-06-01 20:41:00,
2013-06-01 20:51:00,63.0,10.0,30.32,NNW,348,6.0,14.0,12,0.00,,,0.00,,2013-06-01 20:51:00,
2013-06-01 21:01:00,64.0,12.0,30.32,North,355,6.0,14.0,13,0.00,,,0.00,,2013-06-01 21:01:00,
2013-06-01 21:11:00,64.0,10.0,30.31,North,5,6.0,13.0,12,0.00,,,0.00,,2013-06-01 21:11:00,
2013-06-01 21:21:00,64.0,10.0,30.31,North,5,6.0,13.0,12,0.00,,,0.00,,2013-06-01 21:21:00,
2013-06-01 21:33:00,65.0,11.0,30.32,NNW,327,7.0,15.0,12,0.00,,,0.00,,2013-06-01 21:33:00,
2013-06-01 21:42:00,65.0,11.0,30.32,NNW,327,7.0,15.0,12,0.00,,,0.00,,2013-06-01 21:42:00,
2013-06-01 21:53:00,65.0,15.0,30.31,NW,312,10.0,18.0,14,0.00,,,0.00,,2013-06-01 21:53:00,
2013-06-01 22:03:00,67.0,13.0,30.31,NE,52,7.0,12.0,12,0.00,,,0.00,,2013-06-01 22:03:00,
2013-06-01 22:12:00,67.0,13.0,30.31,NE,52,7.0,12.0,12,0.00,,,0.00,,2013-06-01 22:12:00,
2013-06-01 22:23:00,67.0,13.0,30.31,West,262,6.0,12.0,12,0.00,,,0.00,,2013-06-01 22:23:00,
2013-06-01 22:33:00,67.0,15.0,30.31,NNW,341,6.0,12.0,13,0.00,,,0.00,,2013-06-01 22:33:00,
2013-06-01 22:42:00,67.0,15.0,30.31,NNW,341,6.0,12.0,13,0.00,,,0.00,,2013-06-01 22:42:00,
2013-06-01 22:53:00,67.0,13.0,30.30,WNW,300,6.0,12.0,12,0.00,,,0.00,,2013-06-01 22:53:00,
2013-06-01 23:02:00,68.0,15.0,30.30,North,350,9.0,15.0,13,0.00,,,0.00,,2013-06-01 23:02:00,
2013-06-01 23:11:00,68.0,15.0,30.30,North,350,9.0,15.0,13,0.00,,,0.00,,2013-06-01 23:11:00,
2013-06-01 23:21:00,67.0,15.0,30.29,North,9,7.0,15.0,13,0.00,,,0.00,,2013-06-01 23:21:00,
2013-06-01 23:32:00,68.0,15.0,30.29,North,351,8.0,15.0,13,0.00,,,0.00,,2013-06-01 23:32:00,
2013-06-01 23:42:00,68.0,15.0,30.29,North,351,8.0,15.0,13,0.00,,,0.00,,2013-06-01 23:42:00,
2013-06-01 23:52:00,68.0,15.0,30.29,NNE,13,6.0,12.0,13,0.00,,,0.00,,2013-06-01 23:52:00,